Time;durP1;ratioP1;P1;durP2;ratioP2;P2;SDS_P1;SDS_P2;PMS_P1;PMS_P2;Temp;Humidity;BMP_temperature;BMP_pressure;BME280_temperature;BME280_humidity;BME280_pressure;Samples;Min_cycle;Max_cycle;Signal;HPM_P1;HPM_P2
2022/09/24 00:01:25;;;;;;;8.73;5.63;;;10.10;99.90;;;;;;5096712;28;20040;-45
2022/09/24 00:04:01;;;;;;;8.95;5.55;;;10.10;99.90;;;;;;5112943;28;20040;-45
2022/09/24 00:06:29;;;;;;;8.50;5.55;;;10.10;99.90;;;;;;5102939;28;20123;-45
2022/09/24 00:08:57;;;;;;;8.52;5.30;;;10.10;99.90;;;;;;5100796;28;20124;-45
2022/09/24 00:11:25;;;;;;;;;;;10.10;99.90;;;;;;5113863;28;20050;-45
2022/09/24 00:13:53;;;;;;;10.95;5.22;;;10.10;99.90;;;;;;5105724;28;19966;-45
2022/09/24 00:16:22;;;;;;;10.23;5.57;;;10.10;99.90;;;;;;5103917;28;20075;-45
2022/09/24 00:18:49;;;;;;;10.05;5.25;;;10.10;99.90;;;;;;5102837;28;20130;-45
2022/09/24 00:21:25;;;;;;;9.07;5.85;;;10.10;99.90;;;;;;5112600;28;20131;-45
2022/09/24 00:23:57;;;;;;;9.68;6.03;;;10.10;99.90;;;;;;5120984;27;20054;-45
2022/09/24 00:29:13;;;;;;;8.80;5.55;;;10.20;99.90;;;;;;5110835;28;20032;-46
2022/09/24 00:31:40;;;;;;;12.02;5.50;;;10.20;99.90;;;;;;5113873;28;20127;-45
2022/09/24 00:34:07;;;;;;;8.85;5.03;;;10.20;99.90;;;;;;5110256;28;20516;-45
2022/09/24 00:36:34;;;;;;;8.60;4.85;;;10.20;99.90;;;;;;5109331;27;20063;-45
2022/09/24 00:39:01;;;;;;;8.45;5.25;;;10.20;99.90;;;;;;5122350;27;20051;-45
2022/09/24 00:41:32;;;;;;;10.40;5.22;;;10.20;99.90;;;;;;5095580;28;20078;-45
2022/09/24 00:44:00;;;;;;;8.95;5.38;;;10.20;99.90;;;;;;5104489;28;20054;-45
2022/09/24 00:46:26;;;;;;;9.45;5.40;;;10.20;99.90;;;;;;5124030;27;20054;-45
2022/09/24 00:48:57;;;;;;;8.45;5.43;;;10.20;99.90;;;;;;5111307;27;20408;-45
2022/09/24 00:51:27;;;;;;;12.07;5.68;;;10.20;99.90;;;;;;5094715;28;20044;-45
2022/09/24 00:54:03;;;;;;;17.15;5.10;;;10.20;99.90;;;;;;5112638;28;20126;-45
2022/09/24 00:56:33;;;;;;;9.25;5.10;;;10.30;99.90;;;;;;5106981;28;20060;-45
2022/09/24 00:59:01;;;;;;;9.93;6.13;;;10.20;99.90;;;;;;5086131;28;20131;-45
2022/09/24 01:01:31;;;;;;;9.90;6.05;;;10.20;99.90;;;;;;5094903;28;20045;-45
2022/09/24 01:04:00;;;;;;;8.00;5.18;;;10.20;99.90;;;;;;5110961;28;20035;-45
2022/09/24 01:06:27;;;;;;;8.88;5.88;;;10.30;99.90;;;;;;5105683;28;20122;-45
2022/09/24 01:08:55;;;;;;;10.48;5.88;;;10.30;99.90;;;;;;5107822;28;20043;-45
2022/09/24 01:11:46;;;;;;;9.70;5.07;;;10.30;99.90;;;;;;5111574;28;20484;-45
2022/09/24 01:14:26;;;;;;;8.40;4.72;;;10.30;99.90;;;;;;5100946;22;20048;-47
2022/09/24 01:17:16;;;;;;;9.38;5.63;;;10.20;99.90;;;;;;5076794;28;20097;-47
2022/09/24 01:20:21;;;;;;;10.25;5.90;;;10.20;99.90;;;;;;5078239;28;20110;-47
2022/09/24 01:23:25;;;;;;;12.70;5.55;;;10.30;99.90;;;;;;5072105;28;20136;-47
2022/09/24 01:26:11;;;;;;;8.68;5.50;;;10.30;99.90;;;;;;5055887;28;20114;-47
2022/09/24 01:28:56;;;;;;;11.57;5.75;;;10.30;99.90;;;;;;5072096;28;20123;-47
2022/09/24 01:31:29;;;;;;;9.68;6.30;;;10.30;99.90;;;;;;5072004;28;20127;-47
2022/09/24 01:34:00;;;;;;;9.07;5.75;;;10.30;99.90;;;;;;5063281;28;20124;-47
2022/09/24 01:36:29;;;;;;;10.05;5.20;;;10.30;99.90;;;;;;5071795;28;20528;-47
2022/09/24 01:38:58;;;;;;;10.77;5.50;;;10.40;99.90;;;;;;5056113;28;20151;-47
2022/09/24 01:41:25;;;;;;;8.70;5.55;;;10.30;99.90;;;;;;5062559;28;20051;-48
2022/09/24 01:43:52;;;;;;;8.68;5.60;;;10.40;99.90;;;;;;5071977;28;20288;-47
2022/09/24 01:46:21;;;;;;;10.18;5.70;;;10.30;99.90;;;;;;5072034;28;20040;-47
2022/09/24 01:48:49;;;;;;;11.35;5.53;;;10.40;99.90;;;;;;5063604;28;20068;-47
2022/09/24 01:51:26;;;;;;;10.32;5.75;;;10.40;99.90;;;;;;5061461;28;20473;-47
2022/09/24 01:54:00;;;;;;;11.30;5.95;;;10.40;99.90;;;;;;5071367;28;20128;-48
2022/09/24 01:56:37;;;;;;;10.15;5.90;;;10.30;99.90;;;;;;5072004;28;20044;-50
2022/09/24 01:59:11;;;;;;;12.65;6.30;;;10.40;99.90;;;;;;5059556;28;20559;-47
2022/09/24 02:01:49;;;;;;;8.73;5.00;;;10.40;99.90;;;;;;5071487;28;20127;-47
2022/09/24 02:04:19;;;;;;;9.88;5.65;;;10.40;99.90;;;;;;5061615;28;20452;-47
2022/09/24 02:06:55;;;;;;;8.68;5.13;;;10.30;99.90;;;;;;5057723;28;20091;-49
2022/09/24 02:09:30;;;;;;;8.73;5.63;;;10.40;99.90;;;;;;5050314;28;20468;-47
2022/09/24 02:12:02;;;;;;;12.25;5.82;;;10.40;99.90;;;;;;5051687;28;20041;-48
2022/09/24 02:14:32;;;;;;;10.32;5.85;;;10.40;99.90;;;;;;5067308;28;20123;-47
2022/09/24 02:17:01;;;;;;;8.80;4.72;;;10.40;99.90;;;;;;5051596;28;20472;-49
2022/09/24 02:19:29;;;;;;;12.95;5.22;;;10.40;99.90;;;;;;5051582;28;20120;-47
2022/09/24 02:21:57;;;;;;;7.03;4.72;;;10.40;99.90;;;;;;5058238;28;20037;-47
2022/09/24 02:24:35;;;;;;;10.27;5.15;;;10.40;99.90;;;;;;5068598;28;20127;-47
2022/09/24 02:27:02;;;;;;;10.45;5.75;;;10.40;99.90;;;;;;5071360;28;20595;-47
2022/09/24 02:29:29;;;;;;;9.18;5.75;;;10.40;99.90;;;;;;5070460;28;20123;-47
2022/09/24 02:31:58;;;;;;;9.40;6.13;;;10.40;99.90;;;;;;5044418;28;20131;-48
2022/09/24 02:34:37;;;;;;;9.48;5.57;;;10.40;99.90;;;;;;5050131;28;20136;-47
2022/09/24 02:37:09;;;;;;;8.23;5.45;;;10.40;99.90;;;;;;5050817;28;20044;-47
2022/09/24 02:39:36;;;;;;;8.90;5.50;;;10.40;99.90;;;;;;5063017;28;20106;-48
2022/09/24 02:42:05;;;;;;;8.52;5.40;;;10.40;99.90;;;;;;5060877;28;20163;-47
2022/09/24 02:44:32;;;;;;;8.32;5.32;;;10.40;99.90;;;;;;5050822;28;20065;-47
2022/09/24 02:46:59;;;;;;;7.65;5.40;;;10.40;99.90;;;;;;5050437;28;20072;-47
2022/09/24 02:49:26;;;;;;;8.13;5.90;;;10.40;99.90;;;;;;5051049;28;20044;-47
2022/09/24 02:51:54;;;;;;;8.02;5.82;;;10.40;99.90;;;;;;5050253;28;20047;-48
2022/09/24 02:54:21;;;;;;;9.40;5.53;;;10.30;99.90;;;;;;5050920;28;20124;-47
2022/09/24 02:56:48;;;;;;;10.10;6.25;;;10.30;99.90;;;;;;5051742;28;20124;-47
2022/09/24 02:59:15;;;;;;;11.35;5.75;;;10.30;99.90;;;;;;5055207;28;20051;-47
2022/09/24 03:01:42;;;;;;;12.40;5.35;;;10.30;99.90;;;;;;5055053;28;20124;-47
2022/09/24 03:04:09;;;;;;;10.02;6.28;;;10.30;99.90;;;;;;5058201;28;20037;-47
2022/09/24 03:06:36;;;;;;;9.52;5.60;;;10.30;99.90;;;;;;5058722;28;20065;-47
2022/09/24 03:09:04;;;;;;;10.50;6.35;;;10.30;99.90;;;;;;5054418;28;20051;-47
2022/09/24 03:11:31;;;;;;;8.82;6.50;;;10.30;99.90;;;;;;5053330;28;20045;-47
2022/09/24 03:13:59;;;;;;;11.07;6.03;;;10.20;99.90;;;;;;5053791;28;20413;-48
2022/09/24 03:16:26;;;;;;;10.77;6.00;;;10.30;99.90;;;;;;5064275;28;20128;-47
2022/09/24 03:18:53;;;;;;;10.90;6.03;;;10.20;99.90;;;;;;5054906;28;20127;-47
2022/09/24 03:21:21;;;;;;;10.50;6.43;;;10.20;99.90;;;;;;5054567;28;20068;-47
2022/09/24 03:23:48;;;;;;;8.65;5.47;;;10.20;99.90;;;;;;5054569;28;20375;-47
2022/09/24 03:26:14;;;;;;;9.35;5.68;;;10.20;99.90;;;;;;5058310;28;20123;-47
2022/09/24 03:28:41;;;;;;;10.93;6.25;;;10.20;99.90;;;;;;5054641;28;20120;-47
2022/09/24 03:31:08;;;;;;;11.70;6.10;;;10.20;99.90;;;;;;5053713;28;20119;-47
2022/09/24 03:33:45;;;;;;;8.98;5.72;;;10.20;99.90;;;;;;5054175;28;20041;-47
2022/09/24 03:36:16;;;;;;;13.02;5.47;;;10.20;99.90;;;;;;5053176;28;20544;-49
2022/09/24 03:38:44;;;;;;;12.48;6.18;;;10.20;99.90;;;;;;5053874;28;20079;-48
2022/09/24 03:41:12;;;;;;;10.32;5.97;;;10.20;99.90;;;;;;5057353;28;20086;-47
2022/09/24 03:43:38;;;;;;;14.23;6.13;;;10.20;99.90;;;;;;5057565;28;20434;-48
2022/09/24 03:46:06;;;;;;;9.05;5.57;;;10.20;99.90;;;;;;5059211;28;20136;-47
2022/09/24 03:48:35;;;;;;;11.25;5.70;;;10.20;99.90;;;;;;5066057;28;20080;-47
2022/09/24 03:51:04;;;;;;;7.57;5.35;;;10.20;99.90;;;;;;5073314;28;20051;-47
2022/09/24 03:53:31;;;;;;;10.20;5.50;;;10.30;99.90;;;;;;5060265;28;20124;-47
2022/09/24 03:56:01;;;;;;;9.13;5.20;;;10.30;99.90;;;;;;5054198;28;20119;-47
2022/09/24 03:58:30;;;;;;;12.27;5.68;;;10.40;99.90;;;;;;5053914;28;20493;-47
2022/09/24 04:00:56;;;;;;;9.80;5.57;;;10.40;99.90;;;;;;5056431;28;20144;-47
2022/09/24 04:03:24;;;;;;;9.90;5.75;;;10.30;99.90;;;;;;5055026;28;20116;-48
2022/09/24 04:05:51;;;;;;;9.05;5.18;;;10.30;99.90;;;;;;5059068;28;20073;-47
2022/09/24 04:08:22;;;;;;;8.30;5.45;;;10.30;99.90;;;;;;5052866;28;20120;-49
2022/09/24 04:10:50;;;;;;;8.27;5.97;;;10.30;99.90;;;;;;5044731;28;20045;-48
2022/09/24 04:13:17;;;;;;;8.63;5.30;;;10.20;99.90;;;;;;5072581;28;20052;-47
2022/09/24 04:15:44;;;;;;;9.75;5.70;;;10.30;99.90;;;;;;5053385;28;20063;-47
2022/09/24 04:18:11;;;;;;;13.23;6.63;;;10.20;99.90;;;;;;5053553;28;20045;-49
2022/09/24 04:20:37;;;;;;;9.27;5.72;;;10.00;99.90;;;;;;5053830;28;20049;-47
2022/09/24 04:23:04;;;;;;;11.10;6.25;;;10.00;99.90;;;;;;5061039;28;20128;-47
2022/09/24 04:25:31;;;;;;;8.90;5.57;;;9.90;99.90;;;;;;5053052;28;20091;-48
2022/09/24 04:28:01;;;;;;;9.15;5.47;;;9.90;99.90;;;;;;5035302;28;20077;-48
2022/09/24 04:30:29;;;;;;;9.90;6.13;;;9.90;99.90;;;;;;5056251;28;20049;-48
2022/09/24 04:32:59;;;;;;;12.32;6.65;;;9.80;99.90;;;;;;5060118;28;20569;-47
2022/09/24 04:35:28;;;;;;;10.45;6.70;;;9.80;99.90;;;;;;5052927;28;20128;-47
2022/09/24 04:37:56;;;;;;;8.35;6.18;;;9.80;99.90;;;;;;5053026;28;20040;-47
2022/09/24 04:40:22;;;;;;;;;;;9.80;99.90;;;;;;5036188;28;20072;-47
2022/09/24 04:42:49;;;;;;;9.77;5.95;;;9.80;99.90;;;;;;5053199;28;19921;-46
2022/09/24 04:45:19;;;;;;;12.73;7.38;;;9.70;99.90;;;;;;5052695;28;20128;-48
2022/09/24 04:47:52;;;;;;;16.02;7.00;;;9.70;99.90;;;;;;5052441;28;20076;-48
2022/09/24 04:50:19;;;;;;;11.13;7.13;;;9.70;99.90;;;;;;5052606;28;20064;-46
2022/09/24 04:52:52;;;;;;;16.20;6.28;;;9.70;99.90;;;;;;5052944;28;20047;-47
2022/09/24 04:55:22;;;;;;;13.40;6.13;;;9.70;99.90;;;;;;5052846;28;20406;-47
2022/09/24 04:57:49;;;;;;;9.18;6.40;;;9.60;99.90;;;;;;5053005;28;20076;-47
2022/09/24 05:00:19;;;;;;;8.82;6.00;;;9.60;99.90;;;;;;5053194;28;20049;-47
2022/09/24 05:02:45;;;;;;;11.50;6.07;;;9.60;99.90;;;;;;5059016;28;20164;-47
2022/09/24 05:05:13;;;;;;;9.90;6.18;;;9.70;99.90;;;;;;5052009;28;20041;-48
2022/09/24 05:07:41;;;;;;;11.30;6.35;;;9.70;99.90;;;;;;5052759;28;20124;-50
2022/09/24 05:10:08;;;;;;;9.90;6.10;;;9.70;99.90;;;;;;5052104;28;20500;-48
2022/09/24 05:12:35;;;;;;;9.32;6.72;;;9.70;99.90;;;;;;5052458;28;20120;-47
2022/09/24 05:15:03;;;;;;;14.07;6.65;;;9.70;99.90;;;;;;5052101;28;20048;-47
2022/09/24 05:17:29;;;;;;;10.68;6.88;;;9.70;99.90;;;;;;5051961;28;20057;-48
2022/09/24 05:19:58;;;;;;;10.43;6.40;;;9.70;99.90;;;;;;5052656;28;20076;-49
2022/09/24 05:22:26;;;;;;;12.20;6.22;;;9.70;99.90;;;;;;5052355;28;20068;-47
2022/09/24 05:24:53;;;;;;;12.95;6.20;;;9.70;99.90;;;;;;5050675;28;20045;-47
2022/09/24 05:27:20;;;;;;;11.60;6.28;;;9.70;99.90;;;;;;5050993;28;20504;-47
2022/09/24 05:29:47;;;;;;;11.45;6.85;;;9.70;99.90;;;;;;5052161;28;20048;-50
2022/09/24 05:32:16;;;;;;;11.50;6.93;;;9.70;99.90;;;;;;5033313;28;20485;-47
2022/09/24 05:34:44;;;;;;;17.67;7.43;;;9.70;99.90;;;;;;5051177;28;20128;-47
2022/09/24 05:37:12;;;;;;;10.90;6.47;;;9.60;99.90;;;;;;5052412;28;20128;-47
2022/09/24 05:39:39;;;;;;;13.88;7.35;;;9.60;99.90;;;;;;5052103;28;20112;-47
2022/09/24 05:42:08;;;;;;;13.00;6.97;;;9.60;99.90;;;;;;5051875;28;20535;-47
2022/09/24 05:44:36;;;;;;;10.50;6.53;;;9.60;99.90;;;;;;5050653;28;20065;-47
2022/09/24 05:47:02;;;;;;;13.13;6.43;;;9.60;99.90;;;;;;5051846;28;20037;-47
2022/09/24 05:49:30;;;;;;;8.60;5.38;;;9.60;99.90;;;;;;5052857;28;20047;-48
2022/09/24 05:51:57;;;;;;;8.98;5.22;;;9.70;99.90;;;;;;5051932;28;20128;-47
2022/09/24 05:54:24;;;;;;;9.98;6.10;;;9.60;99.90;;;;;;5054011;28;20076;-47
2022/09/24 05:56:51;;;;;;;9.68;5.43;;;9.70;99.90;;;;;;5072217;28;20036;-48
2022/09/24 05:59:17;;;;;;;10.25;4.63;;;9.70;99.90;;;;;;5070754;28;20041;-47
2022/09/24 06:01:44;;;;;;;10.57;4.47;;;9.80;99.90;;;;;;5071386;28;20532;-47
2022/09/24 06:04:11;;;;;;;9.10;4.45;;;9.80;99.90;;;;;;5066088;28;20028;-49
2022/09/24 06:06:38;;;;;;;7.80;4.65;;;9.90;99.90;;;;;;5069725;28;20047;-47
2022/09/24 06:09:07;;;;;;;12.93;6.90;;;10.10;99.90;;;;;;5062452;28;20067;-47
2022/09/24 06:11:34;;;;;;;12.63;7.10;;;10.20;99.90;;;;;;5050548;28;20509;-47
2022/09/24 06:14:07;;;;;;;10.25;6.20;;;10.20;99.90;;;;;;5050820;28;20049;-49
2022/09/24 06:16:34;;;;;;;8.63;6.18;;;10.30;99.90;;;;;;5051637;28;20509;-47
2022/09/24 06:19:01;;;;;;;12.95;6.78;;;10.30;99.90;;;;;;5051690;28;20040;-47
2022/09/24 06:21:27;;;;;;;10.02;6.13;;;10.40;99.90;;;;;;5051825;28;20044;-48
2022/09/24 06:23:54;;;;;;;9.30;5.82;;;10.50;99.90;;;;;;5050184;28;20047;-47
2022/09/24 06:26:21;;;;;;;9.88;5.47;;;10.60;99.90;;;;;;5051356;28;20124;-49
2022/09/24 06:28:48;;;;;;;9.52;5.50;;;10.60;99.90;;;;;;5051572;28;20116;-47
2022/09/24 06:31:15;;;;;;;7.57;5.72;;;10.70;99.90;;;;;;5050654;28;20064;-47
2022/09/24 06:33:42;;;;;;;13.88;6.20;;;10.60;99.90;;;;;;5050657;28;20048;-47
2022/09/24 06:36:09;;;;;;;9.45;5.80;;;10.60;99.90;;;;;;5052159;28;20119;-47
2022/09/24 06:38:38;;;;;;;;;;;10.70;99.90;;;;;;5069996;28;20040;-47
2022/09/24 06:41:05;;;;;;;8.23;5.65;;;10.80;99.90;;;;;;5070992;28;19960;-47
2022/09/24 06:43:33;;;;;;;9.43;5.85;;;10.70;99.90;;;;;;5056183;28;20095;-48
2022/09/24 06:46:00;;;;;;;;;;;10.70;99.90;;;;;;5051573;28;20186;-47
2022/09/24 06:48:27;;;;;;;7.20;5.38;;;10.70;99.90;;;;;;5050113;28;19924;-47
2022/09/24 06:50:55;;;;;;;9.88;6.38;;;10.70;99.90;;;;;;5050608;28;20055;-48
2022/09/24 06:53:22;;;;;;;10.52;6.00;;;10.70;99.90;;;;;;5052603;28;20053;-47
2022/09/24 06:55:49;;;;;;;11.20;6.03;;;10.90;99.90;;;;;;5050156;28;20112;-47
2022/09/24 06:58:19;;;;;;;8.25;5.63;;;10.90;99.90;;;;;;5050864;28;20080;-49
2022/09/24 07:00:57;;;;;;;9.27;5.32;;;10.90;99.90;;;;;;5055398;28;20551;-47
2022/09/24 07:03:26;;;;;;;10.55;5.90;;;11.00;99.90;;;;;;5057572;28;20080;-47
2022/09/24 07:05:53;;;;;;;8.90;5.80;;;11.10;99.90;;;;;;5050600;28;20055;-48
2022/09/24 07:08:20;;;;;;;10.02;5.78;;;11.30;99.90;;;;;;5050614;28;20120;-48
2022/09/24 07:10:53;;;;;;;9.80;5.13;;;11.40;99.90;;;;;;5056042;28;20556;-50
2022/09/24 07:13:20;;;;;;;8.50;5.85;;;11.60;99.90;;;;;;5069141;28;20488;-51
2022/09/24 07:15:49;;;;;;;10.68;6.05;;;11.80;99.90;;;;;;5091414;22;20139;-47
2022/09/24 07:18:16;;;;;;;7.90;5.50;;;11.90;99.90;;;;;;5096999;28;20086;-46
2022/09/24 07:20:43;;;;;;;9.30;5.40;;;12.10;99.90;;;;;;5097643;28;20115;-46
2022/09/24 07:23:11;;;;;;;9.02;5.25;;;12.20;99.90;;;;;;5111170;28;20118;-47
2022/09/24 07:25:38;;;;;;;7.75;4.70;;;12.20;99.90;;;;;;5094758;28;20043;-46
2022/09/24 07:28:08;;;;;;;9.38;5.63;;;12.40;99.90;;;;;;5090752;28;20047;-47
2022/09/24 07:30:35;;;;;;;6.47;5.47;;;12.40;99.90;;;;;;5078734;28;20124;-45
2022/09/24 07:33:03;;;;;;;9.23;5.50;;;12.30;99.90;;;;;;5074742;28;20045;-46
2022/09/24 07:35:30;;;;;;;9.35;4.95;;;12.30;99.90;;;;;;5068276;28;20648;-46
2022/09/24 07:37:59;;;;;;;11.63;4.55;;;12.30;99.90;;;;;;5081316;28;20127;-46
2022/09/24 07:40:27;;;;;;;6.78;5.20;;;12.50;99.90;;;;;;5090618;28;20082;-46
2022/09/24 07:42:54;;;;;;;9.57;5.50;;;12.70;99.90;;;;;;5088572;28;20047;-45
2022/09/24 07:45:22;;;;;;;8.77;4.95;;;12.80;99.90;;;;;;5076498;28;20568;-46
2022/09/24 07:48:03;;;;;;;7.60;5.00;;;12.90;99.90;;;;;;5081985;28;20076;-46
2022/09/24 07:50:32;;;;;;;10.15;5.53;;;12.90;99.90;;;;;;5081886;28;20075;-46
2022/09/24 07:52:59;;;;;;;7.95;4.95;;;12.90;99.90;;;;;;5073876;28;20480;-45
2022/09/24 07:55:26;;;;;;;7.47;5.28;;;12.90;99.90;;;;;;5075516;28;20139;-46
2022/09/24 07:57:54;;;;;;;9.40;5.22;;;12.90;99.90;;;;;;5079410;28;20449;-46
2022/09/24 08:00:23;;;;;;;9.68;5.40;;;13.10;99.90;;;;;;5072582;28;20131;-46
2022/09/24 08:02:52;;;;;;;8.40;5.40;;;13.10;99.90;;;;;;5073723;28;20049;-45
2022/09/24 08:05:19;;;;;;;8.15;5.57;;;13.20;99.90;;;;;;5073266;28;20076;-45
2022/09/24 08:07:54;;;;;;;8.82;5.20;;;13.30;99.90;;;;;;5076113;28;20090;-46
2022/09/24 08:10:21;;;;;;;7.28;5.05;;;13.40;99.90;;;;;;5091709;28;20124;-46
2022/09/24 08:12:49;;;;;;;9.50;5.82;;;13.40;99.90;;;;;;5093368;28;20131;-46
2022/09/24 08:15:15;;;;;;;;;;;13.40;99.90;;;;;;5086141;28;20750;-45
2022/09/24 08:17:42;;;;;;;10.60;5.93;;;13.40;99.90;;;;;;5093704;28;19923;-46
2022/09/24 08:20:10;;;;;;;7.63;5.53;;;13.40;99.90;;;;;;5093441;28;20078;-46
2022/09/24 08:22:37;;;;;;;7.63;5.60;;;13.50;99.90;;;;;;5077204;28;20485;-46
2022/09/24 08:25:04;;;;;;;13.55;5.57;;;13.60;99.90;;;;;;5071764;28;20518;-47
2022/09/24 08:27:31;;;;;;;13.85;5.65;;;13.60;99.90;;;;;;5056854;28;20428;-46
2022/09/24 08:29:59;;;;;;;6.63;4.88;;;13.70;99.90;;;;;;5072473;28;20036;-46
2022/09/24 08:32:28;;;;;;;6.40;4.93;;;13.80;99.90;;;;;;5072263;28;20044;-46
2022/09/24 08:34:54;;;;;;;6.68;4.80;;;13.90;99.90;;;;;;5070891;28;20044;-46
2022/09/24 08:37:21;;;;;;;6.72;4.60;;;14.00;99.90;;;;;;5072873;28;20123;-46
2022/09/24 08:39:48;;;;;;;8.70;5.07;;;14.00;99.90;;;;;;5071887;28;20558;-46
2022/09/24 08:42:44;;;;;;;6.85;4.90;;;14.10;99.90;;;;;;5069073;28;20123;-46
2022/09/24 08:48:09;;;;;;;7.00;4.47;;;14.20;99.90;;;;;;5072238;28;20078;-46
2022/09/24 08:50:38;;;;;;;7.70;4.88;;;14.10;99.90;;;;;;5053176;28;20041;-45
2022/09/24 08:53:18;;;;;;;8.82;4.38;;;14.00;99.90;;;;;;5052633;28;20044;-46
2022/09/24 08:55:47;;;;;;;11.02;4.63;;;14.00;99.90;;;;;;5058738;28;20040;-46
2022/09/24 08:58:32;;;;;;;10.85;5.07;;;14.00;99.90;;;;;;5080413;28;20055;-46
2022/09/24 09:01:16;;;;;;;7.85;4.15;;;14.10;99.90;;;;;;5071730;28;20123;-46
2022/09/24 09:03:55;;;;;;;11.80;4.32;;;14.20;99.90;;;;;;5072881;28;20098;-46
2022/09/24 09:06:47;;;;;;;6.68;4.35;;;14.40;99.90;;;;;;5068208;28;20049;-46
2022/09/24 09:09:24;;;;;;;7.05;4.35;;;14.40;99.90;;;;;;5072270;28;20041;-46
2022/09/24 09:11:58;;;;;;;10.52;4.35;;;14.50;99.90;;;;;;5080727;28;20044;-46
2022/09/24 09:14:42;;;;;;;9.50;4.38;;;14.60;99.90;;;;;;5078846;28;20082;-46
2022/09/24 09:17:30;;;;;;;7.38;4.68;;;14.70;99.90;;;;;;5071761;28;20091;-46
2022/09/24 09:20:00;;;;;;;7.90;4.80;;;14.70;99.90;;;;;;5070417;28;20086;-46
2022/09/24 09:22:34;;;;;;;8.45;4.28;;;14.70;99.90;;;;;;5074429;28;20032;-46
2022/09/24 09:25:27;;;;;;;8.35;4.80;;;15.10;99.90;;;;;;5053453;28;20101;-48
2022/09/24 09:27:57;;;;;;;7.50;4.88;;;15.30;99.90;;;;;;5053775;28;20136;-46
2022/09/24 09:30:24;;;;;;;6.68;4.22;;;15.50;99.90;;;;;;5070126;28;20040;-46
2022/09/24 09:33:22;;;;;;;8.88;5.20;;;15.70;99.90;;;;;;5069285;28;20040;-46
2022/09/24 09:36:26;;;;;;;6.32;4.40;;;16.00;99.90;;;;;;5070079;28;20493;-47
2022/09/24 09:39:10;;;;;;;11.00;4.40;;;16.00;99.90;;;;;;5070578;28;20060;-46
2022/09/24 09:41:44;;;;;;;8.43;4.70;;;16.00;99.90;;;;;;5069385;28;20119;-46
2022/09/24 09:44:15;;;;;;;5.70;3.85;;;15.90;99.90;;;;;;5071425;28;20386;-46
2022/09/24 09:46:49;;;;;;;8.32;4.93;;;15.90;99.90;;;;;;5070694;28;20045;-46
2022/09/24 09:49:17;;;;;;;7.22;4.68;;;15.80;99.90;;;;;;5071675;28;20072;-50
2022/09/24 09:51:47;;;;;;;5.97;4.60;;;15.60;99.90;;;;;;5067528;28;20511;-48
2022/09/24 09:54:14;;;;;;;12.07;4.75;;;15.50;99.90;;;;;;5069110;28;20111;-48
2022/09/24 09:56:47;;;;;;;7.35;4.57;;;15.80;99.90;;;;;;5070713;28;20388;-51
2022/09/24 09:59:21;;;;;;;9.68;5.30;;;16.10;99.90;;;;;;5078278;28;20093;-47
2022/09/24 10:01:56;;;;;;;12.90;5.43;;;16.30;99.90;;;;;;5071076;28;20048;-47
2022/09/24 10:04:34;;;;;;;10.32;5.20;;;16.40;99.90;;;;;;5070857;28;20079;-49
2022/09/24 10:07:12;;;;;;;7.53;4.53;;;16.40;99.90;;;;;;5058207;28;20037;-49
2022/09/24 10:09:41;;;;;;;9.25;5.60;;;16.50;99.90;;;;;;5066170;28;20044;-47
2022/09/24 10:12:14;;;;;;;10.18;5.25;;;16.60;99.90;;;;;;5071129;28;20045;-52
2022/09/24 10:14:42;;;;;;;8.43;5.25;;;16.60;99.90;;;;;;5068541;28;20047;-47
2022/09/24 10:17:12;;;;;;;;;;;16.60;99.90;;;;;;5071883;28;20040;-49
2022/09/24 10:19:39;;;;;;;12.88;5.57;;;16.70;99.90;;;;;;5071632;28;19989;-47
2022/09/24 10:22:19;;;;;;;;;;;16.70;99.90;;;;;;5065390;28;20069;-48
2022/09/24 10:24:47;;;;;;;9.57;5.68;;;16.60;99.90;;;;;;5071023;28;19951;-52
2022/09/24 10:27:23;;;;;;;8.80;4.90;;;16.70;99.90;;;;;;5071245;28;20123;-47
2022/09/24 10:32:40;;;;;;;7.68;5.20;;;16.90;99.90;;;;;;5082582;28;20044;-51
2022/09/24 10:35:26;;;;;;;9.68;4.95;;;17.20;99.90;;;;;;5091055;28;20119;-48
2022/09/24 10:37:58;;;;;;;7.47;4.63;;;17.30;99.90;;;;;;5091732;28;20124;-47
2022/09/24 10:40:29;;;;;;;8.32;5.28;;;17.40;99.90;;;;;;5078443;28;20128;-47
2022/09/24 10:43:01;;;;;;;8.20;5.13;;;17.10;99.90;;;;;;5090998;28;20040;-47
2022/09/24 10:45:55;;;;;;;12.75;5.03;;;17.00;99.90;;;;;;5090732;28;20075;-48
2022/09/24 10:48:27;;;;;;;6.88;4.95;;;17.10;99.90;;;;;;5089941;28;20122;-48
2022/09/24 10:51:06;;;;;;;12.98;4.72;;;17.00;99.90;;;;;;5047616;28;20073;-47
2022/09/24 10:53:50;;;;;;;7.75;4.65;;;16.90;99.90;;;;;;5050910;28;20079;-48
2022/09/24 10:56:25;;;;;;;8.07;4.82;;;16.90;99.90;;;;;;5069361;28;20164;-49
2022/09/24 10:59:21;;;;;;;8.73;5.47;;;17.00;99.90;;;;;;5069036;28;20091;-47
2022/09/24 11:02:02;;;;;;;8.57;4.55;;;17.10;99.90;;;;;;5069887;28;20576;-47
2022/09/24 11:04:40;;;;;;;6.10;4.47;;;17.20;99.90;;;;;;5068053;28;20045;-47
2022/09/24 11:07:34;;;;;;;7.85;5.20;;;17.20;99.90;;;;;;5067904;28;20477;-48
2022/09/24 11:10:30;;;;;;;7.05;4.75;;;17.20;99.90;;;;;;5069998;28;20102;-49
2022/09/24 11:13:16;;;;;;;7.28;4.72;;;17.30;99.90;;;;;;5069026;28;20103;-48
2022/09/24 11:16:14;;;;;;;7.82;5.20;;;17.30;99.90;;;;;;5048353;28;20496;-49
2022/09/24 11:18:59;;;;;;;6.22;4.72;;;17.30;99.90;;;;;;5072297;28;20464;-47
2022/09/24 11:21:56;;;;;;;8.60;5.28;;;17.50;99.90;;;;;;5071534;28;20500;-48
2022/09/24 11:24:59;;;;;;;6.95;4.30;;;17.60;99.90;;;;;;5076894;28;20068;-47
2022/09/24 11:27:42;;;;;;;9.25;4.72;;;17.60;99.90;;;;;;5071065;28;20033;-47
2022/09/24 11:30:21;;;;;;;7.80;4.43;;;17.70;99.90;;;;;;5071184;28;20043;-48
2022/09/24 11:33:08;;;;;;;9.93;4.82;;;17.70;99.90;;;;;;5075066;28;20041;-46
2022/09/24 11:36:19;;;;;;;6.03;4.23;;;17.60;99.90;;;;;;5066605;28;20071;-46
2022/09/24 11:39:18;;;;;;;10.70;5.38;;;17.50;99.90;;;;;;4990608;28;20051;-48
2022/09/24 11:41:45;;;;;;;;;;;17.50;99.90;;;;;;4985911;28;20054;-46
2022/09/24 11:44:40;;;;;;;10.85;4.55;;;17.40;99.90;;;;;;5039155;28;19928;-46
2022/09/24 11:47:09;;;;;;;7.28;3.88;;;17.50;99.90;;;;;;5077035;28;20119;-46
2022/09/24 11:50:19;;;;;;;9.93;4.43;;;17.70;99.90;;;;;;5080558;28;20048;-46
2022/09/24 11:52:54;;;;;;;6.25;4.18;;;17.90;99.90;;;;;;5072270;28;20492;-47
2022/09/24 11:55:48;;;;;;;6.20;3.88;;;17.90;99.90;;;;;;5072464;28;20060;-48
2022/09/24 11:58:22;;;;;;;10.10;3.92;;;18.00;99.90;;;;;;5076626;28;20037;-47
2022/09/24 12:00:54;;;;;;;6.50;4.00;;;18.20;99.90;;;;;;5077307;28;20036;-46
2022/09/24 12:03:46;;;;;;;5.88;3.63;;;18.20;99.90;;;;;;5073112;28;20119;-48
2022/09/24 12:06:30;;;;;;;4.70;3.10;;;18.10;99.90;;;;;;5073988;28;20051;-48
2022/09/24 12:09:22;;;;;;;4.50;2.80;;;18.10;99.90;;;;;;5076114;28;20119;-47
2022/09/24 12:12:06;;;;;;;2.67;2.38;;;18.00;99.90;;;;;;5072246;28;20051;-46
2022/09/24 12:14:46;;;;;;;5.55;2.70;;;17.80;99.90;;;;;;5075045;28;20778;-46
2022/09/24 12:17:46;;;;;;;2.95;1.98;;;17.80;99.90;;;;;;5054744;28;20131;-47
2022/09/24 12:20:27;;;;;;;4.28;2.35;;;17.60;99.90;;;;;;5057722;28;20056;-46
2022/09/24 12:23:00;;;;;;;4.13;2.60;;;17.50;99.90;;;;;;5071559;28;20072;-46
2022/09/24 12:25:43;;;;;;;4.25;2.22;;;17.50;99.90;;;;;;5073074;28;20139;-47
2022/09/24 12:34:20;;;;;;;8.68;2.88;;;17.40;99.90;;;;;;5070119;28;20036;-49
2022/09/24 12:37:10;;;;;;;6.18;2.55;;;17.60;99.90;;;;;;5069949;28;20091;-47
2022/09/24 12:39:56;;;;;;;4.13;2.45;;;17.70;99.90;;;;;;5071333;28;20082;-46
2022/09/24 12:42:27;;;;;;;5.07;2.78;;;17.70;99.90;;;;;;5071681;28;20119;-47
2022/09/24 12:44:58;;;;;;;7.13;2.47;;;17.70;99.90;;;;;;5072364;28;20111;-47
2022/09/24 12:47:32;;;;;;;3.05;2.75;;;17.70;99.90;;;;;;5075202;28;20123;-47
2022/09/24 12:50:07;;;;;;;7.50;3.30;;;17.80;99.90;;;;;;5076968;28;20128;-46
2022/09/24 12:52:41;;;;;;;4.13;2.55;;;17.80;99.90;;;;;;5069350;28;20040;-46
2022/09/24 12:55:34;;;;;;;4.00;2.65;;;17.90;99.90;;;;;;5092816;28;20130;-46
2022/09/24 12:58:06;;;;;;;4.60;2.65;;;17.90;99.90;;;;;;5074555;28;20071;-46
2022/09/24 13:00:44;;;;;;;8.05;2.75;;;17.90;99.90;;;;;;5077306;28;20127;-47
2022/09/24 13:04:08;;;;;;;4.13;2.88;;;17.90;99.90;;;;;;5091833;28;20047;-46
2022/09/24 13:06:37;;;;;;;5.07;2.85;;;17.80;99.90;;;;;;5007934;28;20049;-46
2022/09/24 13:09:36;;;;;;;3.70;2.85;;;17.80;99.90;;;;;;5001682;28;20133;-46
2022/09/24 13:12:30;;;;;;;3.63;2.80;;;17.80;99.90;;;;;;5060044;28;20127;-46
2022/09/24 13:15:01;;;;;;;7.47;3.03;;;17.90;99.90;;;;;;5093158;22;20118;-49
2022/09/24 13:17:31;;;;;;;3.90;2.70;;;18.00;99.90;;;;;;5109886;28;20488;-48
2022/09/24 13:20:07;;;;;;;5.05;2.78;;;17.90;99.90;;;;;;5111460;28;20075;-47
2022/09/24 13:22:35;;;;;;;5.18;3.10;;;17.80;99.90;;;;;;5105549;28;20093;-50
2022/09/24 13:25:08;;;;;;;5.15;2.60;;;17.80;99.90;;;;;;5098202;28;20579;-48
2022/09/24 13:27:38;;;;;;;5.53;2.40;;;17.80;99.90;;;;;;5101727;28;20118;-51
2022/09/24 13:30:08;;;;;;;5.35;2.90;;;17.80;99.90;;;;;;5102430;28;20096;-51
2022/09/24 13:32:42;;;;;;;3.30;2.72;;;17.60;99.90;;;;;;5092599;28;20050;-48